createdAt,value
2023-01-19T00:00:38.960Z,990.61
2023-01-19T00:01:38.829Z,990.61
2023-01-19T00:02:38.797Z,990.64
2023-01-19T00:03:38.743Z,990.69
2023-01-19T00:04:39.146Z,990.58
2023-01-19T00:05:39.145Z,990.65
2023-01-19T00:06:39.152Z,990.66
2023-01-19T00:07:38.684Z,990.64
2023-01-19T00:08:39.162Z,990.75
2023-01-19T00:09:39.171Z,990.73
2023-01-19T00:10:38.681Z,990.69
2023-01-19T00:11:39.185Z,990.78
2023-01-19T00:12:38.663Z,990.77
2023-01-19T00:13:38.664Z,990.79
2023-01-19T00:14:38.660Z,990.82
2023-01-19T00:15:38.690Z,990.76
2023-01-19T00:16:38.650Z,990.77
2023-01-19T00:17:38.639Z,990.83
2023-01-19T00:18:38.691Z,990.80
2023-01-19T00:19:38.741Z,990.79
2023-01-19T00:20:38.648Z,990.81
2023-01-19T00:21:38.851Z,990.78
2023-01-19T00:22:38.613Z,990.76
2023-01-19T00:23:38.932Z,990.78
2023-01-19T00:24:38.582Z,990.80
2023-01-19T00:25:38.948Z,990.78
2023-01-19T00:26:38.677Z,990.76
2023-01-19T00:27:39.091Z,990.73
2023-01-19T00:28:38.594Z,990.75
2023-01-19T00:29:38.707Z,990.78
2023-01-19T00:30:38.718Z,990.81
2023-01-19T00:31:38.933Z,990.80
2023-01-19T00:32:38.721Z,990.78
2023-01-19T00:33:39.995Z,990.78
2023-01-19T00:34:38.513Z,990.78
2023-01-19T00:35:38.957Z,990.80
2023-01-19T00:36:39.375Z,990.82
2023-01-19T00:37:38.753Z,990.79
2023-01-19T00:38:38.569Z,990.80
2023-01-19T00:39:39.175Z,990.67
2023-01-19T00:40:38.548Z,990.72
2023-01-19T00:41:38.750Z,990.75
2023-01-19T00:42:38.591Z,990.70
2023-01-19T00:43:38.475Z,990.79
2023-01-19T00:44:39.121Z,990.74
2023-01-19T00:45:38.533Z,990.68
2023-01-19T00:46:39.030Z,990.75
2023-01-19T00:47:38.501Z,990.71
2023-01-19T00:48:38.453Z,990.78
2023-01-19T00:49:38.460Z,990.71
2023-01-19T00:50:38.411Z,990.74
2023-01-19T00:51:38.472Z,990.67
2023-01-19T00:52:38.427Z,990.66
2023-01-19T00:53:38.469Z,990.61
2023-01-19T00:54:38.478Z,990.62
2023-01-19T00:55:38.468Z,990.66
2023-01-19T00:56:38.478Z,990.56
2023-01-19T00:57:38.549Z,990.65
2023-01-19T00:58:38.380Z,990.61
2023-01-19T00:59:38.378Z,990.61
2023-01-19T01:00:38.558Z,990.57
2023-01-19T01:01:45.085Z,990.65
2023-01-19T01:02:38.747Z,990.64
2023-01-19T01:03:38.587Z,990.71
2023-01-19T01:04:38.735Z,990.60
2023-01-19T01:05:38.595Z,990.61
2023-01-19T01:06:38.553Z,990.65
2023-01-19T01:07:38.759Z,990.70
2023-01-19T01:08:38.765Z,990.68
2023-01-19T01:09:38.347Z,990.59
2023-01-19T01:10:38.293Z,990.64
2023-01-19T01:11:38.784Z,990.59
2023-01-19T01:12:38.678Z,990.57
2023-01-19T01:13:38.281Z,990.65
2023-01-19T01:14:38.492Z,990.66
2023-01-19T01:15:38.417Z,990.72
2023-01-19T01:16:38.757Z,990.76
2023-01-19T01:17:38.321Z,990.78
2023-01-19T01:18:38.754Z,990.79
2023-01-19T01:19:38.547Z,990.73
2023-01-19T01:20:38.270Z,990.75
2023-01-19T01:21:38.250Z,990.80
2023-01-19T01:22:38.303Z,990.79
2023-01-19T01:23:38.257Z,990.90
2023-01-19T01:24:38.850Z,990.87
2023-01-19T01:25:38.284Z,990.89
2023-01-19T01:26:38.189Z,990.90
2023-01-19T01:27:38.228Z,990.88
2023-01-19T01:28:38.279Z,990.89
2023-01-19T01:29:38.220Z,990.93
2023-01-19T01:30:38.304Z,990.84
2023-01-19T01:31:38.374Z,990.86
2023-01-19T01:32:38.189Z,990.82
2023-01-19T01:33:40.520Z,990.89
2023-01-19T01:34:38.198Z,990.83
2023-01-19T01:35:38.244Z,990.94
2023-01-19T01:36:38.147Z,990.83
2023-01-19T01:37:38.147Z,990.83
2023-01-19T01:38:38.135Z,990.86
2023-01-19T01:39:38.365Z,990.80
2023-01-19T01:40:38.123Z,990.73
2023-01-19T01:41:38.423Z,990.73
2023-01-19T01:42:38.403Z,990.69
2023-01-19T01:43:38.183Z,990.66
2023-01-19T01:44:38.413Z,990.73
2023-01-19T01:45:38.530Z,990.73
2023-01-19T01:46:38.472Z,990.74
2023-01-19T01:47:38.087Z,990.71
2023-01-19T01:48:38.051Z,990.74
2023-01-19T01:49:38.237Z,990.73
2023-01-19T01:50:38.485Z,990.65
2023-01-19T01:51:38.552Z,990.73
2023-01-19T01:52:38.051Z,990.71
2023-01-19T01:53:38.538Z,990.71
2023-01-19T01:54:38.060Z,990.68
2023-01-19T01:55:38.038Z,990.70
2023-01-19T01:56:38.036Z,990.68
2023-01-19T01:57:38.031Z,990.63
2023-01-19T01:58:37.990Z,990.62
2023-01-19T01:59:38.032Z,990.67
2023-01-19T02:00:38.046Z,990.58
2023-01-19T02:01:38.437Z,990.59
2023-01-19T02:02:37.988Z,990.61
2023-01-19T02:03:38.329Z,990.63
2023-01-19T02:04:38.137Z,990.64
2023-01-19T02:05:38.366Z,990.71
2023-01-19T02:06:37.950Z,990.76
2023-01-19T02:07:38.146Z,990.71
2023-01-19T02:08:37.945Z,990.72
2023-01-19T02:09:37.958Z,990.86
2023-01-19T02:10:38.606Z,990.77
2023-01-19T02:11:37.923Z,990.80
2023-01-19T02:12:37.987Z,990.81
2023-01-19T02:13:38.033Z,990.81
2023-01-19T02:14:38.005Z,990.77
2023-01-19T02:15:38.206Z,990.83
2023-01-19T02:16:38.085Z,990.86
2023-01-19T02:17:38.288Z,990.85
2023-01-19T02:18:37.890Z,990.86
2023-01-19T02:19:38.023Z,990.87
2023-01-19T02:20:38.006Z,990.83
2023-01-19T02:21:37.905Z,990.91
2023-01-19T02:22:38.487Z,990.93
2023-01-19T02:23:38.471Z,990.98
2023-01-19T02:24:37.862Z,990.96
2023-01-19T02:25:38.072Z,990.90
2023-01-19T02:26:38.301Z,990.91
2023-01-19T02:27:38.079Z,990.90
2023-01-19T02:28:38.721Z,990.90
2023-01-19T02:29:37.904Z,990.85
2023-01-19T02:30:38.112Z,990.87
2023-01-19T02:31:38.698Z,990.82
2023-01-19T02:32:38.383Z,990.82
2023-01-19T02:33:38.128Z,990.77
2023-01-19T02:34:38.368Z,990.77
2023-01-19T02:35:38.835Z,990.69
2023-01-19T02:36:38.153Z,990.80
2023-01-19T02:37:37.768Z,990.77
2023-01-19T02:38:37.956Z,990.79
2023-01-19T02:39:38.448Z,990.80
2023-01-19T02:40:38.597Z,990.82
2023-01-19T02:41:37.734Z,990.81
2023-01-19T02:42:38.595Z,990.84
2023-01-19T02:43:38.585Z,990.85
2023-01-19T02:44:38.521Z,990.83
2023-01-19T02:45:37.716Z,990.82
2023-01-19T02:46:38.016Z,990.79
2023-01-19T02:47:37.821Z,990.68
2023-01-19T02:48:38.602Z,990.73
2023-01-19T02:49:37.838Z,990.73
2023-01-19T02:50:37.843Z,990.69
2023-01-19T02:51:37.844Z,990.71
2023-01-19T02:52:37.883Z,990.72
2023-01-19T02:53:37.866Z,990.78
2023-01-19T02:54:37.662Z,990.80
2023-01-19T02:55:38.075Z,990.72
2023-01-19T02:56:37.643Z,990.67
2023-01-19T02:57:37.884Z,990.79
2023-01-19T02:58:38.105Z,990.79
2023-01-19T02:59:38.113Z,990.69
2023-01-19T03:00:38.152Z,990.72
2023-01-19T03:01:37.827Z,990.69
2023-01-19T03:02:37.780Z,990.71
2023-01-19T03:03:38.138Z,990.61
2023-01-19T03:04:37.730Z,990.74
2023-01-19T03:05:38.176Z,990.71
2023-01-19T03:06:38.238Z,990.67
2023-01-19T03:07:38.573Z,990.64
2023-01-19T03:08:37.581Z,990.61
2023-01-19T03:09:37.971Z,990.63
2023-01-19T03:10:38.210Z,990.59
2023-01-19T03:11:38.417Z,990.59
2023-01-19T03:12:37.587Z,990.52
2023-01-19T03:13:37.786Z,990.56
2023-01-19T03:14:38.034Z,990.52
2023-01-19T03:15:38.586Z,990.54
2023-01-19T03:16:38.223Z,990.59
2023-01-19T03:17:37.534Z,990.59
2023-01-19T03:18:37.625Z,990.60
2023-01-19T03:19:38.442Z,990.64
2023-01-19T03:20:38.617Z,990.61
2023-01-19T03:21:37.694Z,990.59
2023-01-19T03:22:38.994Z,990.57
2023-01-19T03:23:38.315Z,990.69
2023-01-19T03:24:37.960Z,990.72
2023-01-19T03:25:37.492Z,990.69
2023-01-19T03:26:37.483Z,990.78
2023-01-19T03:27:37.502Z,990.75
2023-01-19T03:28:37.505Z,990.72
2023-01-19T03:29:37.515Z,990.71
2023-01-19T03:30:37.729Z,990.78
2023-01-19T03:31:37.718Z,990.73
2023-01-19T03:32:37.731Z,990.77
2023-01-19T03:33:37.730Z,990.74
2023-01-19T03:34:37.530Z,990.70
2023-01-19T03:35:37.555Z,990.65
2023-01-19T03:36:37.388Z,990.66
2023-01-19T03:37:37.959Z,990.69
2023-01-19T03:38:38.840Z,990.72
2023-01-19T03:39:37.367Z,990.72
2023-01-19T03:40:37.601Z,990.68
2023-01-19T03:41:37.378Z,990.59
2023-01-19T03:42:37.411Z,990.65
2023-01-19T03:43:37.429Z,990.57
2023-01-19T03:44:37.402Z,990.57
2023-01-19T03:45:37.437Z,990.50
2023-01-19T03:46:37.418Z,990.53
2023-01-19T03:47:37.328Z,990.57
2023-01-19T03:48:37.323Z,990.52
2023-01-19T03:49:37.425Z,990.53
2023-01-19T03:50:37.497Z,990.56
2023-01-19T03:51:37.473Z,990.54
2023-01-19T03:52:37.274Z,990.53
2023-01-19T03:53:37.284Z,990.61
2023-01-19T03:54:37.468Z,990.55
2023-01-19T03:55:37.272Z,990.52
2023-01-19T03:56:37.259Z,990.57
2023-01-19T03:57:37.260Z,990.55
2023-01-19T03:58:37.495Z,990.54
2023-01-19T03:59:37.513Z,990.53
2023-01-19T04:00:37.232Z,990.49
2023-01-19T04:01:37.394Z,990.47
2023-01-19T04:02:37.339Z,990.48
2023-01-19T04:03:37.456Z,990.53
2023-01-19T04:04:37.328Z,990.52
2023-01-19T04:05:37.221Z,990.49
2023-01-19T04:06:37.193Z,990.44
2023-01-19T04:07:37.363Z,990.51
2023-01-19T04:08:37.311Z,990.40
2023-01-19T04:09:37.190Z,990.49
2023-01-19T04:10:37.379Z,990.43
2023-01-19T04:11:37.369Z,990.43
2023-01-19T04:12:37.167Z,990.41
2023-01-19T04:13:37.379Z,990.44
2023-01-19T04:14:37.170Z,990.38
2023-01-19T04:15:37.261Z,990.45
2023-01-19T04:16:37.302Z,990.48
2023-01-19T04:17:37.316Z,990.47
2023-01-19T04:18:37.317Z,990.45
2023-01-19T04:19:37.218Z,990.43
2023-01-19T04:22:03.892Z,990.42
2023-01-19T04:23:04.350Z,990.53
2023-01-19T04:24:03.247Z,990.52
2023-01-19T04:25:03.066Z,990.45
2023-01-19T04:26:04.108Z,990.47
2023-01-19T04:27:04.009Z,990.50
2023-01-19T04:28:03.082Z,990.49
2023-01-19T04:29:03.038Z,990.50
2023-01-19T04:30:03.091Z,990.42
2023-01-19T04:31:03.141Z,990.49
2023-01-19T04:32:03.917Z,990.39
2023-01-19T04:33:03.532Z,990.51
2023-01-19T04:34:03.140Z,990.41
2023-01-19T04:35:03.125Z,990.51
2023-01-19T04:36:03.125Z,990.46
2023-01-19T04:37:02.994Z,990.52
2023-01-19T04:38:03.173Z,990.53
2023-01-19T04:39:03.154Z,990.46
2023-01-19T04:40:03.155Z,990.50
2023-01-19T04:41:02.969Z,990.50
2023-01-19T04:42:03.082Z,990.41
2023-01-19T04:43:03.330Z,990.41
2023-01-19T04:44:02.986Z,990.42
2023-01-19T04:45:02.957Z,990.54
2023-01-19T04:46:03.189Z,990.47
2023-01-19T04:47:02.975Z,990.43
2023-01-19T04:48:02.923Z,990.46
2023-01-19T04:49:03.141Z,990.48
2023-01-19T04:50:03.001Z,990.46
2023-01-19T04:51:02.979Z,990.51
2023-01-19T04:52:03.041Z,990.44
2023-01-19T04:53:03.430Z,990.44
2023-01-19T04:54:02.930Z,990.42
2023-01-19T04:55:03.275Z,990.40
2023-01-19T04:56:02.850Z,990.40
2023-01-19T04:57:02.948Z,990.43
2023-01-19T04:58:02.860Z,990.40
2023-01-19T04:59:02.879Z,990.46
2023-01-19T05:00:02.894Z,990.42
2023-01-19T05:01:02.898Z,990.39
2023-01-19T05:02:02.953Z,990.32
2023-01-19T05:03:03.284Z,990.37
2023-01-19T05:04:02.797Z,990.33
2023-01-19T05:05:02.936Z,990.35
2023-01-19T05:06:02.936Z,990.32
2023-01-19T05:07:02.795Z,990.31
2023-01-19T05:08:02.777Z,990.26
2023-01-19T05:09:02.806Z,990.29
2023-01-19T05:10:02.784Z,990.26
2023-01-19T05:11:02.956Z,990.29
2023-01-19T05:12:02.773Z,990.26
2023-01-19T05:13:03.505Z,990.29
2023-01-19T05:14:03.194Z,990.32
2023-01-19T05:15:02.764Z,990.30
2023-01-19T05:16:02.736Z,990.34
2023-01-19T05:17:03.202Z,990.29
2023-01-19T05:18:03.205Z,990.24
2023-01-19T05:19:03.204Z,990.29
2023-01-19T05:20:03.214Z,990.28
2023-01-19T05:21:02.692Z,990.21
2023-01-19T05:22:02.690Z,990.36
2023-01-19T05:23:03.345Z,990.24
2023-01-19T05:24:02.829Z,990.32
2023-01-19T05:25:02.681Z,990.30
2023-01-19T05:26:02.689Z,990.19
2023-01-19T05:27:03.101Z,990.21
2023-01-19T05:28:02.885Z,990.24
2023-01-19T05:29:03.099Z,990.30
2023-01-19T05:30:02.650Z,990.27
2023-01-19T05:31:02.742Z,990.30
2023-01-19T05:32:02.841Z,990.29
2023-01-19T05:33:03.417Z,990.35
2023-01-19T05:34:02.918Z,990.29
2023-01-19T05:35:02.699Z,990.27
2023-01-19T05:36:03.385Z,990.28
2023-01-19T05:37:02.726Z,990.32
2023-01-19T05:38:02.581Z,990.32
2023-01-19T05:39:02.587Z,990.29
2023-01-19T05:40:02.726Z,990.32
2023-01-19T05:41:03.366Z,990.26
2023-01-19T05:42:02.556Z,990.35
2023-01-19T05:43:03.464Z,990.40
2023-01-19T05:44:02.547Z,990.37
2023-01-19T05:45:02.767Z,990.34
2023-01-19T05:46:03.184Z,990.38
2023-01-19T05:47:02.610Z,990.39
2023-01-19T05:48:02.523Z,990.34
2023-01-19T05:49:03.444Z,990.38
2023-01-19T05:50:02.621Z,990.49
2023-01-19T05:51:03.043Z,990.43
2023-01-19T05:52:02.840Z,990.39
2023-01-19T05:53:03.737Z,990.45
2023-01-19T05:54:02.583Z,990.46
2023-01-19T05:55:03.491Z,990.50
2023-01-19T05:56:02.467Z,990.53
2023-01-19T05:57:02.472Z,990.56
2023-01-19T05:58:02.461Z,990.45
2023-01-19T05:59:02.469Z,990.54
2023-01-19T06:00:02.530Z,990.53
2023-01-19T06:01:02.475Z,990.53
2023-01-19T06:02:02.447Z,990.52
2023-01-19T06:03:03.068Z,990.46
2023-01-19T06:04:02.482Z,990.48
2023-01-19T06:05:02.478Z,990.43
2023-01-19T06:06:02.425Z,990.43
2023-01-19T06:07:02.539Z,990.46
2023-01-19T06:08:02.559Z,990.41
2023-01-19T06:09:02.397Z,990.48
2023-01-19T06:10:02.557Z,990.46
2023-01-19T06:11:02.567Z,990.47
2023-01-19T06:12:02.567Z,990.46
2023-01-19T06:13:02.756Z,990.55
2023-01-19T06:14:02.363Z,990.38
2023-01-19T06:15:02.570Z,990.41
2023-01-19T06:16:02.818Z,990.51
2023-01-19T06:17:02.779Z,990.48
2023-01-19T06:18:02.356Z,990.38
2023-01-19T06:19:02.624Z,990.48
2023-01-19T06:20:02.623Z,990.47
2023-01-19T06:21:02.844Z,990.40
2023-01-19T06:22:02.501Z,990.47
2023-01-19T06:23:02.758Z,990.46
2023-01-19T06:24:02.301Z,990.47
2023-01-19T06:25:02.412Z,990.50
2023-01-19T06:26:02.433Z,990.46
2023-01-19T06:27:02.422Z,990.51
2023-01-19T06:28:02.854Z,990.52
2023-01-19T06:29:02.269Z,990.57
2023-01-19T06:30:02.326Z,990.51
2023-01-19T06:31:02.525Z,990.59
2023-01-19T06:32:02.881Z,990.47
2023-01-19T06:33:02.680Z,990.56
2023-01-19T06:34:02.685Z,990.45
2023-01-19T06:35:02.221Z,990.49
2023-01-19T06:36:02.480Z,990.51
2023-01-19T06:37:02.288Z,990.50
2023-01-19T06:38:02.343Z,990.49
2023-01-19T06:39:02.518Z,990.54
2023-01-19T06:40:02.528Z,990.58
2023-01-19T06:41:02.193Z,990.63
2023-01-19T06:42:02.178Z,990.54
2023-01-19T06:43:02.582Z,990.53
2023-01-19T06:44:02.196Z,990.58
2023-01-19T06:45:02.197Z,990.57
2023-01-19T06:46:02.249Z,990.65
2023-01-19T06:47:15.685Z,990.66
2023-01-19T06:48:02.243Z,990.70
2023-01-19T06:49:02.246Z,990.69
2023-01-19T06:50:02.273Z,990.66
2023-01-19T06:51:02.285Z,990.71
2023-01-19T06:52:02.237Z,990.80
2023-01-19T06:53:02.832Z,990.75
2023-01-19T06:54:02.305Z,990.68
2023-01-19T06:55:02.326Z,990.71
2023-01-19T06:56:03.098Z,990.72
2023-01-19T06:57:02.824Z,990.69
2023-01-19T06:58:02.362Z,990.70
2023-01-19T06:59:02.086Z,990.81
2023-01-19T07:00:02.092Z,990.79
2023-01-19T07:01:02.392Z,990.86
2023-01-19T07:02:26.399Z,990.88
2023-01-19T07:03:02.608Z,990.86
2023-01-19T07:04:02.051Z,990.87
2023-01-19T07:05:02.458Z,990.89
2023-01-19T07:06:02.327Z,991.01
2023-01-19T07:07:02.316Z,991.05
2023-01-19T07:08:02.489Z,990.97
2023-01-19T07:09:02.025Z,991.08
2023-01-19T07:10:02.179Z,991.04
2023-01-19T07:11:26.318Z,991.06
2023-01-19T07:12:01.978Z,991.05
2023-01-19T07:13:02.516Z,991.04
2023-01-19T07:14:02.009Z,991.08
2023-01-19T07:15:01.975Z,991.09
2023-01-19T07:16:01.988Z,991.13
2023-01-19T07:17:01.966Z,991.15
2023-01-19T07:18:01.957Z,990.97
2023-01-19T07:19:01.961Z,991.11
2023-01-19T07:20:01.960Z,991.14
2023-01-19T07:21:01.969Z,991.09
2023-01-19T07:22:01.953Z,991.12
2023-01-19T07:23:02.348Z,991.17
2023-01-19T07:24:02.065Z,991.09
2023-01-19T07:25:02.071Z,991.19
2023-01-19T07:26:01.905Z,991.21
2023-01-19T07:27:01.896Z,991.18
2023-01-19T07:28:02.446Z,991.10
2023-01-19T07:29:02.644Z,991.21
2023-01-19T07:30:02.263Z,991.21
2023-01-19T07:31:02.093Z,991.22
2023-01-19T07:32:02.653Z,991.23
2023-01-19T07:33:02.214Z,991.29
2023-01-19T07:34:02.122Z,991.31
2023-01-19T07:35:01.929Z,991.25
2023-01-19T07:36:02.268Z,991.28
2023-01-19T07:37:02.674Z,991.28
2023-01-19T07:38:02.842Z,991.30
2023-01-19T07:39:02.119Z,991.25
2023-01-19T07:40:02.374Z,991.32
2023-01-19T07:41:01.963Z,991.26
2023-01-19T07:42:02.099Z,991.31
2023-01-19T07:43:02.521Z,991.30
2023-01-19T07:44:01.916Z,991.32
2023-01-19T07:45:01.988Z,991.39
2023-01-19T07:46:02.046Z,991.34
2023-01-19T07:47:02.627Z,991.43
2023-01-19T07:48:01.783Z,991.36
2023-01-19T07:49:01.750Z,991.41
2023-01-19T07:50:01.759Z,991.44
2023-01-19T07:51:01.771Z,991.44
2023-01-19T07:52:01.759Z,991.44
2023-01-19T07:53:02.287Z,991.49
2023-01-19T07:54:01.856Z,991.57
2023-01-19T07:55:01.993Z,991.59
2023-01-19T07:56:02.015Z,991.57
2023-01-19T07:57:01.731Z,991.60
2023-01-19T07:58:01.802Z,991.56
2023-01-19T07:59:02.085Z,991.61
2023-01-19T08:00:02.294Z,991.61
2023-01-19T08:01:02.264Z,991.60
2023-01-19T08:02:01.865Z,991.55
2023-01-19T08:03:02.229Z,991.58
2023-01-19T08:04:02.338Z,991.57
2023-01-19T08:05:02.461Z,991.65
2023-01-19T08:06:01.672Z,991.57
2023-01-19T08:07:01.673Z,991.53
2023-01-19T08:08:02.173Z,991.55
2023-01-19T08:09:02.563Z,991.58
2023-01-19T08:10:02.162Z,991.60
2023-01-19T08:11:02.291Z,991.61
2023-01-19T08:12:01.981Z,991.61
2023-01-19T08:13:02.950Z,991.60
2023-01-19T08:14:01.691Z,991.64
2023-01-19T08:15:01.755Z,991.70
2023-01-19T08:16:02.049Z,991.64
2023-01-19T08:17:02.213Z,991.65
2023-01-19T08:18:02.419Z,991.67
2023-01-19T08:19:01.568Z,991.70
2023-01-19T08:20:01.618Z,991.68
2023-01-19T08:21:01.879Z,991.75
2023-01-19T08:22:01.563Z,991.70
2023-01-19T08:23:03.099Z,991.71
2023-01-19T08:24:01.650Z,991.72
2023-01-19T08:25:01.647Z,991.67
2023-01-19T08:26:02.397Z,991.78
2023-01-19T08:27:01.673Z,991.77
2023-01-19T08:28:01.514Z,991.80
2023-01-19T08:29:01.504Z,991.79
2023-01-19T08:30:01.543Z,991.75
2023-01-19T08:31:11.129Z,991.78
2023-01-19T08:32:01.805Z,991.80
2023-01-19T08:33:02.097Z,991.95
2023-01-19T08:34:01.505Z,991.85
2023-01-19T08:35:01.512Z,991.88
2023-01-19T08:36:01.845Z,991.96
2023-01-19T08:37:01.854Z,992.02
2023-01-19T08:38:01.954Z,991.99
2023-01-19T08:39:01.971Z,991.99
2023-01-19T08:40:01.972Z,991.98
2023-01-19T08:41:01.592Z,992.04
2023-01-19T08:42:01.772Z,992.01
2023-01-19T08:43:02.053Z,992.01
2023-01-19T08:44:01.425Z,992.00
2023-01-19T08:45:01.413Z,991.97
2023-01-19T08:46:01.640Z,992.09
2023-01-19T08:47:01.412Z,992.13
2023-01-19T08:48:01.735Z,992.16
2023-01-19T08:49:02.038Z,992.11
2023-01-19T08:50:01.453Z,992.11
2023-01-19T08:51:01.460Z,992.10
2023-01-19T08:52:02.178Z,992.15
2023-01-19T08:53:02.599Z,992.08
2023-01-19T08:54:01.659Z,992.19
2023-01-19T08:55:01.888Z,992.22
2023-01-19T08:56:01.381Z,992.22
2023-01-19T08:57:01.476Z,992.29
2023-01-19T08:58:02.201Z,992.28
2023-01-19T08:59:09.762Z,992.32
2023-01-19T09:00:01.654Z,992.29
2023-01-19T09:01:03.127Z,992.32
2023-01-19T09:02:02.285Z,992.35
2023-01-19T09:03:02.475Z,992.38
2023-01-19T09:04:01.345Z,992.44
2023-01-19T09:05:01.936Z,992.46
2023-01-19T09:06:02.315Z,992.55
2023-01-19T09:07:02.215Z,992.56
2023-01-19T09:08:01.697Z,992.63
2023-01-19T09:09:01.345Z,992.51
2023-01-19T09:10:01.287Z,992.57
2023-01-19T09:11:01.301Z,992.57
2023-01-19T09:12:01.272Z,992.71
2023-01-19T09:13:01.223Z,992.71
2023-01-19T09:14:01.222Z,992.67
2023-01-19T09:15:01.254Z,992.69
2023-01-19T09:16:01.231Z,992.68
2023-01-19T09:17:01.211Z,992.71
2023-01-19T09:18:01.729Z,992.72
2023-01-19T09:19:01.225Z,992.73
2023-01-19T09:20:01.246Z,992.73
2023-01-19T09:21:01.215Z,992.75
2023-01-19T09:22:01.240Z,992.78
2023-01-19T09:23:01.219Z,992.85
2023-01-19T09:24:01.305Z,992.86
2023-01-19T09:25:01.248Z,992.87
2023-01-19T09:26:01.258Z,992.82
2023-01-19T09:27:01.406Z,992.91
2023-01-19T09:28:01.642Z,992.88
2023-01-19T09:29:01.415Z,992.89
2023-01-19T09:30:01.417Z,992.86
2023-01-19T09:31:01.531Z,992.80
2023-01-19T09:32:01.410Z,992.82
2023-01-19T09:33:01.449Z,992.86
2023-01-19T09:34:01.467Z,992.81
2023-01-19T09:35:01.085Z,992.77
2023-01-19T09:36:01.097Z,992.83
2023-01-19T09:37:01.436Z,992.80
2023-01-19T09:38:01.662Z,992.89
2023-01-19T09:39:01.055Z,992.92
2023-01-19T09:40:01.152Z,992.98
2023-01-19T09:41:01.075Z,993.00
2023-01-19T09:42:01.038Z,992.97
2023-01-19T09:43:01.057Z,993.00
2023-01-19T09:44:01.083Z,993.00
2023-01-19T09:45:01.082Z,993.06
2023-01-19T09:46:01.019Z,993.07
2023-01-19T09:47:01.024Z,993.11
2023-01-19T09:48:01.299Z,993.10
2023-01-19T09:49:01.019Z,993.09
2023-01-19T09:50:01.163Z,993.08
2023-01-19T09:51:01.252Z,993.17
2023-01-19T09:52:01.003Z,993.13
2023-01-19T09:53:01.555Z,993.19
2023-01-19T09:54:00.995Z,993.16
2023-01-19T09:55:00.960Z,993.21
2023-01-19T09:56:01.470Z,993.17
2023-01-19T09:57:01.069Z,993.22
2023-01-19T09:58:01.402Z,993.16
2023-01-19T09:59:00.918Z,993.24
2023-01-19T10:00:01.087Z,993.19
2023-01-19T10:01:01.069Z,993.24
2023-01-19T10:02:01.830Z,993.26
2023-01-19T10:03:01.512Z,993.24
2023-01-19T10:04:01.107Z,993.30
2023-01-19T10:05:01.527Z,993.28
2023-01-19T10:06:00.888Z,993.25
2023-01-19T10:07:00.899Z,993.34
2023-01-19T10:08:01.247Z,993.31
2023-01-19T10:09:01.146Z,993.30
2023-01-19T10:10:00.855Z,993.34
2023-01-19T10:11:00.846Z,993.33
2023-01-19T10:12:00.872Z,993.39
2023-01-19T10:13:01.229Z,993.37
2023-01-19T10:14:00.915Z,993.40
2023-01-19T10:15:00.815Z,993.44
2023-01-19T10:16:00.836Z,993.39
2023-01-19T10:17:00.815Z,993.38
2023-01-19T10:18:01.162Z,993.45
2023-01-19T10:19:00.809Z,993.51
2023-01-19T10:20:00.835Z,993.47
2023-01-19T10:21:00.801Z,993.53
2023-01-19T10:22:00.832Z,993.50
2023-01-19T10:23:01.118Z,993.56
2023-01-19T10:24:00.850Z,993.47
2023-01-19T10:25:00.761Z,993.46
2023-01-19T10:26:00.940Z,993.52
2023-01-19T10:27:00.898Z,993.47
2023-01-19T10:28:00.795Z,993.49
2023-01-19T10:29:00.730Z,993.53
2023-01-19T10:30:01.111Z,993.47
2023-01-19T10:31:01.090Z,993.51
2023-01-19T10:32:01.055Z,993.53
2023-01-19T10:33:01.292Z,993.55
2023-01-19T10:34:01.004Z,993.55
2023-01-19T10:35:00.720Z,993.47
2023-01-19T10:36:01.005Z,993.56
2023-01-19T10:37:00.698Z,993.57
2023-01-19T10:38:00.702Z,993.54
2023-01-19T10:39:01.026Z,993.54
2023-01-19T10:40:00.931Z,993.58
2023-01-19T10:41:00.673Z,993.52
2023-01-19T10:42:01.226Z,993.51
2023-01-19T10:43:01.683Z,993.55
2023-01-19T10:44:00.816Z,993.56
2023-01-19T10:45:00.912Z,993.61
2023-01-19T10:46:01.316Z,993.65
2023-01-19T10:47:00.667Z,993.53
2023-01-19T10:48:01.268Z,993.57
2023-01-19T10:49:00.718Z,993.60
2023-01-19T10:50:01.250Z,993.54
2023-01-19T10:51:00.648Z,993.56
2023-01-19T10:52:00.616Z,993.63
2023-01-19T10:53:00.973Z,993.62
2023-01-19T10:54:00.771Z,993.64
2023-01-19T10:55:01.317Z,993.62
2023-01-19T10:56:01.137Z,993.65
2023-01-19T10:57:01.294Z,993.56
2023-01-19T10:58:00.941Z,993.62
2023-01-19T10:59:00.539Z,993.61
2023-01-19T11:00:00.563Z,993.64
2023-01-19T11:01:00.648Z,993.68
2023-01-19T11:02:00.666Z,993.67
2023-01-19T11:03:00.926Z,993.70
2023-01-19T11:04:00.611Z,993.63
2023-01-19T11:05:00.635Z,993.70
2023-01-19T11:06:00.558Z,993.64
2023-01-19T11:07:00.547Z,993.73
2023-01-19T11:08:00.531Z,993.65
2023-01-19T11:09:00.547Z,993.73
2023-01-19T11:10:00.534Z,993.72
2023-01-19T11:11:00.573Z,993.78
2023-01-19T11:12:00.592Z,993.66
2023-01-19T11:13:01.056Z,993.71
2023-01-19T11:14:00.531Z,993.68
2023-01-19T11:15:00.608Z,993.80
2023-01-19T11:16:00.665Z,993.73
2023-01-19T11:17:00.662Z,993.78
2023-01-19T11:18:00.654Z,993.71
2023-01-19T11:19:00.434Z,993.75
2023-01-19T11:20:00.686Z,993.67
2023-01-19T11:21:00.415Z,993.66
2023-01-19T11:22:00.709Z,993.66
2023-01-19T11:23:01.024Z,993.74
2023-01-19T11:24:00.403Z,993.77
2023-01-19T11:25:00.392Z,993.68
2023-01-19T11:26:00.651Z,993.79
2023-01-19T11:27:00.762Z,993.79
2023-01-19T11:28:00.462Z,993.89
2023-01-19T11:29:00.803Z,993.88
2023-01-19T11:30:00.384Z,993.93
2023-01-19T11:31:00.838Z,993.88
2023-01-19T11:32:00.726Z,993.86
2023-01-19T11:33:00.814Z,993.90
2023-01-19T11:34:00.849Z,993.94
2023-01-19T11:35:00.883Z,993.89
2023-01-19T11:36:00.324Z,993.86
2023-01-19T11:37:00.328Z,993.88
2023-01-19T11:38:00.329Z,993.95
2023-01-19T11:39:00.344Z,993.93
2023-01-19T11:40:00.428Z,993.90
2023-01-19T11:41:00.416Z,993.91
2023-01-19T11:42:00.575Z,993.89
2023-01-19T11:43:00.745Z,993.94
2023-01-19T11:44:00.529Z,993.99
2023-01-19T11:45:00.585Z,993.95
2023-01-19T11:46:00.707Z,993.90
2023-01-19T11:47:00.488Z,993.81
2023-01-19T11:48:00.765Z,993.86
2023-01-19T11:49:00.481Z,993.96
2023-01-19T11:50:00.832Z,993.94
2023-01-19T11:51:00.215Z,993.92
2023-01-19T11:52:00.633Z,993.95
2023-01-19T11:53:00.437Z,993.88
2023-01-19T11:54:01.044Z,993.98
2023-01-19T11:55:00.267Z,993.98
2023-01-19T11:56:00.359Z,993.90
2023-01-19T11:57:00.495Z,994.02
2023-01-19T11:58:00.620Z,993.98
2023-01-19T11:59:00.975Z,994.00
2023-01-19T12:00:00.896Z,994.02
2023-01-19T12:01:00.219Z,993.97
2023-01-19T12:02:00.355Z,994.07
2023-01-19T12:03:01.257Z,993.96
2023-01-19T12:04:00.168Z,993.97
2023-01-19T12:05:00.349Z,993.96
2023-01-19T12:06:00.325Z,994.03
2023-01-19T12:07:00.332Z,994.02
2023-01-19T12:08:00.770Z,993.96
2023-01-19T12:09:00.564Z,994.10
2023-01-19T12:10:00.656Z,994.05
2023-01-19T12:11:00.375Z,994.09
2023-01-19T12:12:00.569Z,994.08
2023-01-19T12:13:00.426Z,993.97
2023-01-19T12:14:00.409Z,994.06
2023-01-19T12:15:00.125Z,994.05
2023-01-19T12:16:00.124Z,994.00
2023-01-19T12:17:00.215Z,993.95
2023-01-19T12:18:00.630Z,994.00
2023-01-19T12:19:00.051Z,994.02
2023-01-19T12:20:00.307Z,993.97
2023-01-19T12:21:02.820Z,994.03
2023-01-19T12:22:00.260Z,994.03
2023-01-19T12:23:00.257Z,994.00
2023-01-19T12:24:00.002Z,993.99
2023-01-19T12:25:00.522Z,994.04
2023-01-19T12:26:00.464Z,994.00
2023-01-19T12:27:00.496Z,994.03
2023-01-19T12:28:00.508Z,993.99
2023-01-19T12:29:00.504Z,993.99
2023-01-19T12:30:00.107Z,994.01